Time;durP1;ratioP1;P1;durP2;ratioP2;P2;SDS_P1;SDS_P2;PMS_P1;PMS_P2;Temp;Humidity;BMP_temperature;BMP_pressure;BME280_temperature;BME280_humidity;BME280_pressure;Samples;Min_cycle;Max_cycle;Signal;HPM_P1;HPM_P2
2023/06/27 00:00:56;;;;;;;;;;;13.10;75.90;;;;;;5065553;28;19962;-94
2023/06/27 00:03:24;;;;;;;;;;;13.10;75.90;;;;;;5089411;28;19959;-92
2023/06/27 00:05:53;;;;;;;;;;;13.10;75.80;;;;;;5074729;28;19931;-94
2023/06/27 00:08:21;;;;;;;;;;;13.10;76.00;;;;;;5085122;28;19931;-94
2023/06/27 00:10:46;;;;;;;;;;;13.00;76.00;;;;;;5075923;28;20461;-94
2023/06/27 00:13:15;;;;;;;;;;;13.00;76.10;;;;;;5081792;28;19931;-94
2023/06/27 00:15:43;;;;;;;;;;;13.00;76.20;;;;;;5084324;28;19928;-94
2023/06/27 00:18:11;;;;;;;;;;;13.00;76.10;;;;;;5086035;28;19930;-94
2023/06/27 00:20:43;;;;;;;;;;;13.00;76.10;;;;;;5080168;28;19924;-93
2023/06/27 00:23:20;;;;;;;;;;;13.00;76.30;;;;;;5074918;28;19930;-92
2023/06/27 00:25:45;;;;;;;;;;;13.00;76.40;;;;;;5080526;28;19924;-94
2023/06/27 00:28:14;;;;;;;;;;;13.00;76.20;;;;;;5074741;28;20014;-95
2023/06/27 00:30:42;;;;;;;;;;;12.90;76.40;;;;;;5075204;28;19975;-94
2023/06/27 00:33:14;;;;;;;;;;;12.90;76.30;;;;;;5090848;28;19928;-94
2023/06/27 00:35:40;;;;;;;;;;;12.80;76.20;;;;;;5084699;28;19924;-93
2023/06/27 00:38:08;;;;;;;;;;;12.80;76.40;;;;;;5088201;28;20274;-93
2023/06/27 00:40:34;;;;;;;;;;;12.80;76.50;;;;;;5094748;28;19928;-94
2023/06/27 00:43:00;;;;;;;;;;;12.80;76.70;;;;;;5074614;28;19994;-94
2023/06/27 00:45:26;;;;;;;;;;;12.80;76.80;;;;;;5078294;28;19927;-94
2023/06/27 00:47:56;;;;;;;;;;;12.80;76.90;;;;;;5076256;28;20006;-95
2023/06/27 00:50:36;;;;;;;;;;;;;;;;;;;;;
2023/06/27 00:53:11;;;;;;;;;;;12.70;76.80;;;;;;5081908;28;20292;-95
2023/06/27 00:55:41;;;;;;;;;;;12.70;76.90;;;;;;5087865;28;19931;-95
2023/06/27 00:58:07;;;;;;;;;;;12.70;76.90;;;;;;5061501;28;19932;-94
2023/06/27 01:00:33;;;;;;;;;;;12.70;77.10;;;;;;5084207;28;20048;-94
2023/06/27 01:03:06;;;;;;;;;;;12.70;76.90;;;;;;5069595;28;19928;-94
2023/06/27 01:05:32;;;;;;;;;;;12.70;77.10;;;;;;5074434;28;19928;-94
2023/06/27 01:08:04;;;;;;;;;;;12.70;77.00;;;;;;5071926;28;20402;-95
2023/06/27 01:10:48;;;;;;;;;;;12.70;77.20;;;;;;5087989;28;19924;-94
2023/06/27 01:13:18;;;;;;;;;;;12.70;77.10;;;;;;5087017;28;19924;-95
2023/06/27 01:15:44;;;;;;;;;;;12.70;77.30;;;;;;5078169;28;19973;-95
2023/06/27 01:18:20;;;;;;;;;;;12.70;77.40;;;;;;5065135;28;19924;-94
2023/06/27 01:20:49;;;;;;;;;;;12.70;77.30;;;;;;5083220;28;19928;-95
2023/06/27 01:23:21;;;;;;;;;;;12.60;77.30;;;;;;5074004;28;19946;-94
2023/06/27 01:25:52;;;;;;;;;;;12.70;77.50;;;;;;5084965;28;20037;-94
2023/06/27 01:28:20;;;;;;;;;;;12.70;77.30;;;;;;5057722;28;19924;-95
2023/06/27 01:30:46;;;;;;;;;;;12.70;77.20;;;;;;5077012;28;19932;-95
2023/06/27 01:33:16;;;;;;;;;;;12.70;77.40;;;;;;5085637;28;19928;-94
2023/06/27 01:35:54;;;;;;;;;;;12.70;77.20;;;;;;5077531;28;19924;-95
2023/06/27 01:38:23;;;;;;;;;;;12.70;77.00;;;;;;5081868;28;19932;-95
2023/06/27 01:40:52;;;;;;;;;;;12.70;77.00;;;;;;5093451;28;19928;-95
2023/06/27 01:43:19;;;;;;;;;;;12.70;77.20;;;;;;5081991;28;19931;-95
2023/06/27 01:45:58;;;;;;;;;;;;;;;;;;;;;
2023/06/27 01:48:25;;;;;;;;;;;12.70;76.90;;;;;;5090329;28;19923;-94
2023/06/27 01:50:52;;;;;;;;;;;12.70;77.20;;;;;;5072311;28;19928;-95
2023/06/27 01:53:18;;;;;;;;;;;12.80;76.50;;;;;;5085956;28;19985;-95
2023/06/27 01:55:45;;;;;;;;;;;12.80;76.60;;;;;;5087198;28;19924;-95
2023/06/27 01:58:14;;;;;;;;;;;12.80;76.30;;;;;;5086569;28;19927;-95
2023/06/27 02:00:43;;;;;;;;;;;12.90;76.00;;;;;;5093563;28;19924;-95
2023/06/27 02:03:08;;;;;;;;;;;12.90;75.90;;;;;;5092255;28;20003;-94
2023/06/27 02:05:39;;;;;;;;;;;12.90;75.80;;;;;;5096002;28;19959;-96
2023/06/27 02:08:12;;;;;;;;;;;13.00;75.80;;;;;;5083552;27;19957;-94
2023/06/27 02:10:38;;;;;;;;;;;13.00;75.60;;;;;;5084825;28;19978;-94
2023/06/27 02:13:04;;;;;;;;;;;13.00;75.60;;;;;;5081363;28;19931;-95
2023/06/27 02:15:30;;;;;;;;;;;13.00;75.40;;;;;;5089918;28;19931;-94
2023/06/27 02:18:05;;;;;;;;;;;13.10;75.30;;;;;;5060379;28;19924;-95
2023/06/27 02:20:36;;;;;;;;;;;13.10;75.30;;;;;;5085853;28;19934;-94
2023/06/27 02:23:02;;;;;;;;;;;13.10;75.30;;;;;;5076898;28;20015;-94
2023/06/27 02:25:28;;;;;;;;;;;13.10;75.20;;;;;;5081725;28;20014;-95
2023/06/27 02:27:56;;;;;;;;;;;13.10;75.10;;;;;;5060685;28;19924;-94
2023/06/27 02:30:25;;;;;;;;;;;13.10;75.10;;;;;;5087069;28;19932;-94
2023/06/27 02:32:55;;;;;;;;;;;13.10;75.10;;;;;;5081254;28;20018;-93
2023/06/27 02:35:24;;;;;;;;;;;13.00;75.20;;;;;;5080772;28;20451;-93
2023/06/27 02:37:50;;;;;;;;;;;13.00;75.20;;;;;;5085704;28;19990;-95
2023/06/27 02:40:15;;;;;;;;;;;13.00;75.10;;;;;;5096873;28;20931;-94
2023/06/27 02:42:41;;;;;;;;;;;13.00;75.10;;;;;;5091420;28;19931;-94
2023/06/27 02:45:07;;;;;;;;;;;13.00;75.10;;;;;;5096136;28;19923;-93
2023/06/27 02:47:33;;;;;;;;;;;13.00;75.20;;;;;;5063596;28;19930;-94
2023/06/27 02:49:59;;;;;;;;;;;12.90;75.30;;;;;;5098694;27;19931;-92
2023/06/27 02:52:25;;;;;;;;;;;12.90;75.40;;;;;;5090134;27;19924;-94
2023/06/27 02:54:56;;;;;;;;;;;12.90;75.30;;;;;;5090837;28;19924;-94
2023/06/27 02:57:21;;;;;;;;;;;12.90;75.30;;;;;;5068806;28;19927;-94
2023/06/27 02:59:47;;;;;;;;;;;12.90;75.50;;;;;;5073869;28;20198;-94
2023/06/27 03:02:16;;;;;;;;;;;12.90;75.50;;;;;;5073451;28;20370;-94
2023/06/27 03:04:42;;;;;;;;;;;12.80;75.50;;;;;;5103832;27;20021;-94
2023/06/27 03:07:16;;;;;;;;;;;12.80;75.50;;;;;;5081459;27;19923;-95
2023/06/27 03:09:42;;;;;;;;;;;12.80;75.50;;;;;;5099172;27;20018;-93
2023/06/27 03:12:10;;;;;;;;;;;12.80;75.60;;;;;;5097982;27;19923;-94
2023/06/27 03:14:41;;;;;;;;;;;12.80;75.50;;;;;;5090606;27;19923;-94
2023/06/27 03:17:08;;;;;;;;;;;12.80;75.60;;;;;;5079205;27;20082;-94
2023/06/27 03:19:33;;;;;;;;;;;12.80;75.60;;;;;;5099206;27;19933;-95
2023/06/27 03:21:59;;;;;;;;;;;12.80;75.60;;;;;;5085029;27;20022;-94
2023/06/27 03:24:25;;;;;;;;;;;12.90;75.60;;;;;;5099694;27;19987;-94
2023/06/27 03:26:53;;;;;;;;;;;12.90;75.60;;;;;;5080382;27;20030;-95
2023/06/27 03:29:24;;;;;;;;;;;12.90;75.60;;;;;;5097422;27;20018;-94
2023/06/27 03:31:53;;;;;;;;;;;12.90;75.70;;;;;;5099255;27;19930;-95
2023/06/27 03:34:18;;;;;;;;;;;12.90;75.70;;;;;;5074383;27;19924;-94
2023/06/27 03:36:46;;;;;;;;;;;12.90;75.70;;;;;;5102792;27;19945;-93
2023/06/27 03:39:14;;;;;;;;;;;12.90;75.70;;;;;;5078896;27;20299;-95
2023/06/27 03:41:40;;;;;;;;;;;12.90;75.60;;;;;;5095715;28;19931;-95
2023/06/27 03:44:08;;;;;;;;;;;13.00;75.70;;;;;;5101142;27;19924;-93
2023/06/27 03:46:37;;;;;;;;;;;13.00;75.50;;;;;;5077459;27;19927;-92
2023/06/27 03:49:05;;;;;;;;;;;13.00;75.50;;;;;;5045937;28;19924;-92
2023/06/27 03:51:37;;;;;;;;;;;13.10;75.50;;;;;;5085579;28;20507;-93
2023/06/27 03:54:02;;;;;;;;;;;13.10;75.50;;;;;;5082798;28;19924;-93
2023/06/27 03:56:31;;;;;;;;;;;13.10;75.40;;;;;;5089196;28;19919;-93
2023/06/27 03:59:06;;;;;;;;;;;13.10;75.50;;;;;;5081707;28;19931;-96
2023/06/27 04:01:41;;;;;;;;;;;13.10;75.40;;;;;;5093488;27;20453;-95
2023/06/27 04:04:07;;;;;;;;;;;13.10;75.40;;;;;;5068405;27;19924;-95
2023/06/27 04:06:33;;;;;;;;;;;13.20;75.30;;;;;;5088687;28;19919;-91
2023/06/27 04:09:08;;;;;;;;;;;13.30;75.30;;;;;;5095159;27;20334;-96
2023/06/27 04:11:37;;;;;;;;;;;13.30;75.40;;;;;;5082688;27;19981;-95
2023/06/27 04:14:02;;;;;;;;;;;13.30;75.30;;;;;;5076146;27;20002;-94
2023/06/27 04:16:28;;;;;;;;;;;13.30;75.20;;;;;;5075534;28;20010;-94
2023/06/27 04:18:54;;;;;;;;;;;13.40;75.20;;;;;;5087908;28;20024;-95
2023/06/27 04:21:23;;;;;;;;;;;13.40;75.10;;;;;;5087443;28;20014;-95
2023/06/27 04:23:57;;;;;;;;;;;13.50;75.20;;;;;;5083836;28;20268;-96
2023/06/27 04:26:25;;;;;;;;;;;13.50;75.00;;;;;;5076031;27;19939;-93
2023/06/27 04:29:53;;;;;;;;;;;13.60;74.90;;;;;;5078444;28;19935;-96
2023/06/27 04:32:00;;;;;;;;;;;13.60;74.90;;;;;;5091724;27;19980;-95
2023/06/27 04:34:26;;;;;;;;;;;13.70;74.90;;;;;;5046196;27;19924;-95
2023/06/27 04:37:04;;;;;;;;;;;;;;;;;;;;;
2023/06/27 04:39:30;;;;;;;;;;;13.90;74.70;;;;;;5106695;27;20009;-96
2023/06/27 04:42:14;;;;;;;;;;;14.00;74.50;;;;;;5074348;28;19930;-96
2023/06/27 04:44:51;;;;;;;;;;;14.00;74.40;;;;;;5085184;28;20014;-96
2023/06/27 04:47:18;;;;;;;;;;;14.10;74.20;;;;;;5083711;28;19935;-92
2023/06/27 04:49:47;;;;;;;;;;;14.20;74.10;;;;;;5086301;28;20325;-95
2023/06/27 04:52:12;;;;;;;;;;;14.30;74.00;;;;;;5077173;28;19928;-95
2023/06/27 04:54:38;;;;;;;;;;;14.30;73.90;;;;;;5083893;28;20014;-94
2023/06/27 04:57:09;;;;;;;;;;;14.40;73.80;;;;;;5071413;28;19920;-91
2023/06/27 04:59:35;;;;;;;;;;;14.50;73.70;;;;;;5089750;28;19978;-95
2023/06/27 05:02:29;;;;;;;;;;;;;;;;;;;;;
2023/06/27 05:05:21;;;;;;;;;;;14.60;73.40;;;;;;5089180;28;19932;-96
2023/06/27 05:10:43;;;;;;;;;;;14.90;73.00;;;;;;5084097;28;20112;-96
2023/06/27 05:13:14;;;;;;;;;;;15.00;73.00;;;;;;5079967;27;19934;-95
2023/06/27 05:15:43;;;;;;;;;;;15.10;72.70;;;;;;5058898;28;20482;-96
2023/06/27 05:18:13;;;;;;;;;;;15.20;72.60;;;;;;5085150;28;19931;-95
2023/06/27 05:20:47;;;;;;;;;;;15.30;72.40;;;;;;5090164;28;19936;-95
2023/06/27 05:23:23;;;;;;;;;;;15.40;72.50;;;;;;5083069;28;19930;-96
2023/06/27 05:25:49;;;;;;;;;;;15.50;72.30;;;;;;5073095;28;20423;-96
2023/06/27 05:28:17;;;;;;;;;;;15.60;72.60;;;;;;5075532;28;19931;-96
2023/06/27 05:30:58;;;;;;;;;;;15.60;72.60;;;;;;5089211;28;19941;-95
2023/06/27 05:33:42;;;;;;;;;;;15.80;72.30;;;;;;5067724;27;19972;-93
2023/06/27 05:36:07;;;;;;;;;;;15.80;72.20;;;;;;5089588;27;19932;-93
2023/06/27 05:38:33;;;;;;;;;;;15.90;72.30;;;;;;5074738;28;19928;-95
2023/06/27 05:41:01;;;;;;;;;;;16.00;72.30;;;;;;5084285;28;19928;-95
2023/06/27 05:43:33;;;;;;;;;;;16.10;72.10;;;;;;5087273;28;19970;-96
2023/06/27 05:49:37;;;;;;;;;;;16.30;72.20;;;;;;5014449;28;20625;-96
2023/06/27 05:52:06;;;;;;;;;;;16.50;71.50;;;;;;5073344;28;19923;-94
2023/06/27 05:54:44;;;;;;;;;;;16.60;71.40;;;;;;5085255;28;19928;-96
2023/06/27 05:57:17;;;;;;;;;;;16.70;71.20;;;;;;5085026;28;19928;-96
2023/06/27 05:59:46;;;;;;;;;;;16.70;71.10;;;;;;5089653;28;19927;-95
2023/06/27 06:02:11;;;;;;;;;;;16.90;71.20;;;;;;5090179;28;19941;-95
2023/06/27 06:04:43;;;;;;;;;;;16.90;70.70;;;;;;5091151;28;19932;-96
2023/06/27 06:10:53;;;;;;;;;;;;;;;;;;;;;
2023/06/27 06:13:18;;;;;;;;;;;17.40;70.10;;;;;;5093303;28;19934;-94
2023/06/27 06:15:47;;;;;;;;;;;17.50;69.10;;;;;;5078767;28;20010;-96
2023/06/27 06:18:13;;;;;;;;;;;17.50;68.70;;;;;;5060337;27;19931;-96
2023/06/27 06:20:45;;;;;;;;;;;17.60;69.00;;;;;;5098048;27;19924;-94
2023/06/27 06:23:22;;;;;;;;;;;17.60;68.90;;;;;;5110621;27;20024;-96
2023/06/27 06:26:36;;;;;;;;;;;17.80;68.90;;;;;;5118773;27;19924;-96
2023/06/27 06:29:32;;;;;;;;;;;18.00;68.70;;;;;;5075562;28;19924;-96
2023/06/27 06:35:35;;;;;;;;;;;18.10;68.80;;;;;;5061800;28;19968;-94
2023/06/27 06:38:29;;;;;;;;;;;18.30;67.20;;;;;;5044157;28;19950;-96
2023/06/27 06:40:56;;;;;;;;;;;18.40;67.70;;;;;;5094960;28;19935;-96
2023/06/27 06:43:54;;;;;;;;;;;18.40;67.10;;;;;;5064888;28;20399;-95
2023/06/27 06:46:37;;;;;;;;;;;18.40;66.90;;;;;;5039755;28;19995;-93
2023/06/27 06:49:06;;;;;;;;;;;18.40;67.20;;;;;;5061245;28;19923;-94
2023/06/27 06:51:34;;;;;;;;;;;18.50;66.50;;;;;;5061272;28;19928;-96
2023/06/27 06:54:00;;;;;;;;;;;18.50;66.70;;;;;;5040983;28;19924;-95
2023/06/27 06:56:26;;;;;;;;;;;18.60;67.10;;;;;;5030535;28;20590;-94
2023/06/27 06:58:56;;;;;;;;;;;18.60;66.00;;;;;;5056083;28;19928;-96
2023/06/27 07:01:22;;;;;;;;;;;18.60;65.90;;;;;;5067893;28;20413;-93
2023/06/27 07:04:10;;;;;;;;;;;;;;;;;;;;;
2023/06/27 07:06:36;;;;;;;;;;;18.50;66.20;;;;;;5111417;27;19919;-94
2023/06/27 07:09:23;;;;;;;;;;;18.60;64.70;;;;;;5069951;28;19924;-95
2023/06/27 07:11:51;;;;;;;;;;;18.60;65.00;;;;;;5086235;28;19931;-96
2023/06/27 07:14:25;;;;;;;;;;;18.50;64.70;;;;;;5065168;28;19943;-96
2023/06/27 07:16:57;;;;;;;;;;;18.60;65.00;;;;;;5057941;28;19924;-96
2023/06/27 07:22:52;;;;;;;;;;;18.50;65.00;;;;;;5085269;28;19928;-94
2023/06/27 07:29:11;;;;;;;;;;;18.50;63.60;;;;;;5046655;28;19925;-96
2023/06/27 07:31:52;;;;;;;;;;;18.50;63.90;;;;;;5082496;27;19924;-95
2023/06/27 07:35:01;;;;;;;;;;;18.40;62.90;;;;;;5052726;28;19924;-96
2023/06/27 07:43:56;;;;;;;;;;;18.50;63.60;;;;;;5046947;27;20001;-95
2023/06/27 07:49:40;;;;;;;;;;;18.80;62.90;;;;;;5089812;28;19924;-95
2023/06/27 07:52:49;;;;;;;;;;;18.90;62.50;;;;;;5065967;28;20072;-95
2023/06/27 07:55:16;;;;;;;;;;;19.00;61.90;;;;;;5103522;28;19924;-96
2023/06/27 07:58:10;;;;;;;;;;;19.00;62.30;;;;;;5081617;28;19950;-95
2023/06/27 08:00:57;;;;;;;;;;;19.20;61.40;;;;;;5041495;28;20000;-93
2023/06/27 08:12:44;;;;;;;;;;;19.60;59.70;;;;;;4949406;28;20164;-96
2023/06/27 08:15:29;;;;;;;;;;;19.50;60.30;;;;;;4937439;28;20390;-95
2023/06/27 08:17:55;;;;;;;;;;;19.40;60.00;;;;;;4940048;29;19941;-94
2023/06/27 08:20:36;;;;;;;;;;;19.20;60.90;;;;;;4941693;28;19925;-96
2023/06/27 08:26:25;;;;;;;;;;;19.30;60.30;;;;;;5488237;22;20029;-96
2023/06/27 08:28:52;;;;;;;;;;;19.40;59.90;;;;;;5035436;28;20396;-96
2023/06/27 08:31:59;;;;;;;;;;;19.30;59.70;;;;;;5012194;28;19960;-96
2023/06/27 08:34:33;;;;;;;;;;;19.40;60.90;;;;;;5023815;28;19958;-96
2023/06/27 08:43:57;;;;;;;;;;;19.50;61.20;;;;;;4894030;29;20408;-96
2023/06/27 08:46:27;;;;;;;;;;;19.50;62.10;;;;;;4903307;29;19998;-96
2023/06/27 08:48:57;;;;;;;;;;;19.50;61.10;;;;;;4871409;29;20387;-94
2023/06/27 08:51:26;;;;;;;;;;;19.40;61.40;;;;;;4887870;29;20300;-96
2023/06/27 08:54:17;;;;;;;;;;;19.40;60.20;;;;;;4880539;29;19998;-96
2023/06/27 08:57:50;;;;;;;;;;;19.50;60.30;;;;;;4876986;29;19971;-96
2023/06/27 09:00:20;;;;;;;;;;;19.70;59.40;;;;;;4872649;29;20296;-92
2023/06/27 09:03:24;;;;;;;;;;;19.60;58.60;;;;;;4888484;29;19927;-94
2023/06/27 09:05:53;;;;;;;;;;;19.50;58.70;;;;;;4927481;29;19927;-95
2023/06/27 09:11:19;;;;;;;;;;;19.50;59.50;;;;;;4903940;29;19931;-96
2023/06/27 09:13:45;;;;;;;;;;;19.60;59.30;;;;;;4982995;28;19924;-96
2023/06/27 09:16:13;;;;;;;;;;;19.60;59.20;;;;;;5033498;28;20273;-96
2023/06/27 09:18:43;;;;;;;;;;;19.70;59.40;;;;;;5009201;28;19951;-96
2023/06/27 09:21:12;;;;;;;;;;;19.60;58.90;;;;;;5007290;28;19925;-94
2023/06/27 09:23:41;;;;;;;;;;;19.70;58.60;;;;;;5001403;28;20322;-94
2023/06/27 09:26:42;;;;;;;;;;;19.70;59.00;;;;;;5027217;28;20372;-96
2023/06/27 09:29:14;;;;;;;;;;;19.70;59.30;;;;;;4957388;28;19933;-96
2023/06/27 09:31:39;;;;;;;;;;;19.60;57.90;;;;;;4984951;28;20007;-92
2023/06/27 09:34:12;;;;;;;;;;;19.50;58.80;;;;;;5017469;28;20366;-94
2023/06/27 09:36:49;;;;;;;;;;;19.50;59.50;;;;;;5027215;28;19932;-95
2023/06/27 09:39:27;;;;;;;;;;;19.70;58.80;;;;;;5004970;28;19932;-96
2023/06/27 09:45:32;;;;;;;;;;;;;;;;;;;;;
2023/06/27 09:48:24;;;;;;;;;;;19.80;59.50;;;;;;4988438;28;19929;-95
2023/06/27 09:57:42;;;;;;;;;;;19.60;59.60;;;;;;5507224;22;20197;-96
2023/06/27 10:00:26;;;;;;;;;;;19.70;58.80;;;;;;5023772;28;19929;-94
2023/06/27 10:02:55;;;;;;;;;;;19.70;59.20;;;;;;5035376;28;19924;-96
2023/06/27 10:05:28;;;;;;;;;;;19.70;59.00;;;;;;5008005;28;19929;-93
2023/06/27 10:07:57;;;;;;;;;;;19.70;59.20;;;;;;5027656;28;19925;-94
2023/06/27 10:13:57;;;;;;;;;;;19.70;60.00;;;;;;5023019;28;20036;-96
2023/06/27 10:16:49;;;;;;;;;;;19.70;60.10;;;;;;5041145;28;19925;-96
2023/06/27 10:23:08;;;;;;;;;;;19.70;59.20;;;;;;4994234;28;19976;-96
2023/06/27 10:29:22;;;;;;;;;;;19.70;59.60;;;;;;4968222;28;19992;-96
2023/06/27 10:32:21;;;;;;;;;;;19.80;59.60;;;;;;4963484;28;19926;-96
2023/06/27 10:35:26;;;;;;;;;;;19.90;59.90;;;;;;4934979;29;19945;-96
2023/06/27 10:38:11;;;;;;;;;;;20.00;60.60;;;;;;4930877;28;19996;-96
2023/06/27 10:40:55;;;;;;;;;;;20.00;58.90;;;;;;4985542;28;19926;-96
2023/06/27 10:47:09;;;;;;;;;;;;;;;;;;;;;
2023/06/27 10:50:32;;;;;;;;;;;20.00;59.70;;;;;;4823568;29;20339;-94
2023/06/27 10:57:05;;;;;;;;;;;20.00;60.00;;;;;;4802589;29;19976;-94
2023/06/27 10:59:33;;;;;;;;;;;20.10;58.80;;;;;;4772106;29;19968;-95
2023/06/27 11:02:58;;;;;;;;;;;20.00;58.40;;;;;;4825916;29;20350;-94
2023/06/27 11:05:41;;;;;;;;;;;20.00;59.10;;;;;;4845513;29;19939;-96
2023/06/27 11:08:17;;;;;;;;;;;20.00;59.80;;;;;;4902513;29;19927;-95
2023/06/27 11:18:09;;;;;;;;;;;20.30;59.40;;;;;;4745277;30;19975;-96
2023/06/27 11:24:35;;;;;;;;;;;;;;;;;;;;;
2023/06/27 11:27:25;;;;;;;;;;;20.20;59.20;;;;;;4792274;29;19932;-94
2023/06/27 11:30:23;;;;;;;;;;;20.30;59.30;;;;;;4827583;29;19933;-96
2023/06/27 11:33:19;;;;;;;;;;;20.30;59.30;;;;;;4830465;29;19932;-96
2023/06/27 11:36:29;;;;;;;;;;;20.40;58.40;;;;;;4843661;29;19929;-95
2023/06/27 11:38:58;;;;;;;;;;;20.30;58.40;;;;;;4839199;29;19928;-95
2023/06/27 11:42:06;;;;;;;;;;;20.30;59.10;;;;;;4855647;29;19931;-96
2023/06/27 11:44:32;;;;;;;;;;;20.20;58.20;;;;;;4812734;29;19927;-95
2023/06/27 11:57:07;;;;;;;;;;;20.40;58.00;;;;;;4867483;29;19927;-94
2023/06/27 11:59:38;;;;;;;;;;;20.50;56.80;;;;;;4876592;29;19933;-93
2023/06/27 12:05:19;;;;;;;;;;;20.30;57.20;;;;;;4918439;29;19927;-96
2023/06/27 12:08:15;;;;;;;;;;;20.30;58.30;;;;;;4913057;28;20028;-95
2023/06/27 12:11:01;;;;;;;;;;;;;;;;;;;;;
2023/06/27 12:14:28;;;;;;;;;;;20.20;58.20;;;;;;4937196;29;20341;-95
2023/06/27 12:16:57;;;;;;;;;;;20.10;58.10;;;;;;4924175;28;20429;-95
2023/06/27 12:20:34;;;;;;;;;;;20.00;58.00;;;;;;4913604;29;19982;-96
2023/06/27 12:23:13;;;;;;;;;;;20.00;58.30;;;;;;4933445;29;19926;-96
2023/06/27 12:28:18;;;;;;;;;;;20.00;58.80;;;;;;5202941;22;19940;-94
2023/06/27 12:33:52;;;;;;;;;;;19.90;58.80;;;;;;5012444;28;19952;-95
2023/06/27 12:36:40;;;;;;;;;;;19.80;58.40;;;;;;5006119;28;19929;-96
2023/06/27 12:39:32;;;;;;;;;;;;;;;;;;;;;
2023/06/27 12:42:25;;;;;;;;;;;19.70;58.50;;;;;;5024730;28;19935;-96
2023/06/27 12:48:19;;;;;;;;;;;19.80;59.50;;;;;;5022696;28;19935;-97
2023/06/27 12:54:46;;;;;;;;;;;20.10;59.00;;;;;;5033727;28;19925;-96
2023/06/27 13:16:57;;;;;;;;;;;20.90;57.40;;;;;;4753655;29;20026;-96
2023/06/27 13:19:31;;;;;;;;;;;20.90;57.10;;;;;;4766801;30;20404;-96
2023/06/27 13:24:50;;;;;;;;;;;20.60;56.50;;;;;;5124401;22;20444;-96
2023/06/27 13:27:19;;;;;;;;;;;20.40;56.50;;;;;;4982611;28;19933;-95
2023/06/27 13:30:06;;;;;;;;;;;20.40;56.20;;;;;;4978371;28;19925;-95
2023/06/27 13:32:35;;;;;;;;;;;20.40;57.20;;;;;;4983433;28;19953;-94
2023/06/27 13:35:29;;;;;;;;;;;20.50;56.80;;;;;;4989209;28;20020;-94
2023/06/27 13:38:34;;;;;;;;;;;20.60;57.80;;;;;;4986243;28;19929;-95
2023/06/27 13:41:20;;;;;;;;;;;20.60;55.80;;;;;;4968755;28;20026;-95
2023/06/27 13:48:04;;;;;;;;;;;20.70;56.30;;;;;;4911498;29;19943;-96
2023/06/27 13:57:42;;;;;;;;;;;20.60;56.40;;;;;;4914689;29;19929;-96
2023/06/27 14:00:50;;;;;;;;;;;20.70;57.00;;;;;;4923504;29;20434;-96
2023/06/27 14:03:58;;;;;;;;;;;;;;;;;;;;;
2023/06/27 14:09:36;;;;;;;;;;;20.30;58.60;;;;;;4886314;29;19931;-95
2023/06/27 14:12:37;;;;;;;;;;;20.50;58.90;;;;;;4944001;29;19926;-93
2023/06/27 14:22:09;;;;;;;;;;;20.50;56.40;;;;;;4917329;28;19926;-95
2023/06/27 14:28:01;;;;;;;;;;;20.10;58.20;;;;;;4911643;29;19927;-96
2023/06/27 14:30:53;;;;;;;;;;;20.10;58.20;;;;;;4970396;28;20056;-95
2023/06/27 14:34:10;;;;;;;;;;;20.20;59.70;;;;;;4900660;29;19933;-96
2023/06/27 14:36:55;;;;;;;;;;;20.30;59.00;;;;;;4921566;29;19927;-96
2023/06/27 14:45:05;;;;;;;;;;;20.70;58.10;;;;;;6030063;23;19939;-94
2023/06/27 14:47:44;;;;;;;;;;;20.70;57.60;;;;;;5000345;28;19929;-91
2023/06/27 14:50:10;;;;;;;;;;;20.70;58.10;;;;;;4996491;28;20395;-94
2023/06/27 14:52:52;;;;;;;;;;;20.70;58.40;;;;;;5018908;28;19929;-94
2023/06/27 14:55:30;;;;;;;;;;;20.70;58.10;;;;;;5028774;28;19975;-92
2023/06/27 14:58:10;;;;;;;;;;;20.60;58.40;;;;;;5024460;28;20385;-93
2023/06/27 15:00:37;;;;;;;;;;;20.50;58.60;;;;;;5030258;28;20274;-91
2023/06/27 15:03:18;;;;;;;;;;;20.50;59.00;;;;;;5010829;28;20010;-94
2023/06/27 15:05:44;;;;;;;;;;;20.50;59.10;;;;;;5026886;28;19978;-91
2023/06/27 15:08:13;;;;;;;;;;;20.30;59.30;;;;;;4998501;28;19929;-93
2023/06/27 15:11:28;;;;;;;;;;;20.20;59.10;;;;;;5046101;28;19935;-91
2023/06/27 15:13:57;;;;;;;;;;;20.10;59.80;;;;;;4926625;29;19926;-90
2023/06/27 15:16:26;;;;;;;;;;;20.20;59.90;;;;;;4952141;28;19982;-94
2023/06/27 15:18:51;;;;;;;;;;;20.10;59.70;;;;;;4993798;28;19924;-92
2023/06/27 15:21:17;;;;;;;;;;;20.00;60.00;;;;;;5030432;28;19924;-95
2023/06/27 15:23:46;;;;;;;;;;;20.00;60.30;;;;;;5030616;28;19947;-94
2023/06/27 15:26:14;;;;;;;;;;;19.80;59.70;;;;;;5008347;28;20028;-91
2023/06/27 15:28:42;;;;;;;;;;;19.70;60.00;;;;;;5025787;28;19932;-93
2023/06/27 15:31:12;;;;;;;;;;;19.90;60.00;;;;;;5028863;28;19978;-93
2023/06/27 15:33:46;;;;;;;;;;;20.00;59.70;;;;;;5013316;28;19935;-92
2023/06/27 15:36:14;;;;;;;;;;;20.00;59.60;;;;;;5035785;28;19947;-92
2023/06/27 15:38:42;;;;;;;;;;;20.00;59.50;;;;;;5027253;28;19932;-94
2023/06/27 15:44:28;;;;;;;;;;;20.00;59.20;;;;;;5014908;28;19978;-96
2023/06/27 15:46:59;;;;;;;;;;;20.00;59.50;;;;;;5036224;28;19927;-95
2023/06/27 15:49:40;;;;;;;;;;;20.00;59.50;;;;;;4996690;28;19975;-95
2023/06/27 15:52:24;;;;;;;;;;;19.90;58.90;;;;;;5006864;28;19964;-93
2023/06/27 15:54:49;;;;;;;;;;;19.70;58.50;;;;;;5022050;28;20025;-93
2023/06/27 15:57:20;;;;;;;;;;;19.70;58.60;;;;;;5019680;28;20031;-92
2023/06/27 15:59:45;;;;;;;;;;;19.70;57.90;;;;;;5018112;28;20037;-94
2023/06/27 16:02:25;;;;;;;;;;;19.50;58.20;;;;;;5002060;28;20384;-94
2023/06/27 16:04:56;;;;;;;;;;;19.50;58.10;;;;;;5012182;28;19928;-93
2023/06/27 16:07:22;;;;;;;;;;;19.40;58.20;;;;;;5008221;28;19934;-93
2023/06/27 16:09:50;;;;;;;;;;;19.40;58.10;;;;;;5023246;28;20384;-92
2023/06/27 16:12:28;;;;;;;;;;;19.30;58.50;;;;;;5001720;28;19928;-92
2023/06/27 16:14:53;;;;;;;;;;;19.30;59.10;;;;;;5029438;28;20261;-93
2023/06/27 16:17:36;;;;;;;;;;;19.20;59.00;;;;;;4996495;28;19935;-94
2023/06/27 16:20:12;;;;;;;;;;;;;;;;;;;;;
2023/06/27 16:22:38;;;;;;;;;;;19.10;59.80;;;;;;5029788;28;20552;-96
2023/06/27 16:25:17;;;;;;;;;;;19.10;59.70;;;;;;5022037;28;19929;-93
2023/06/27 16:27:43;;;;;;;;;;;19.10;59.60;;;;;;5012189;28;20442;-95
2023/06/27 16:30:09;;;;;;;;;;;19.00;59.70;;;;;;5024253;28;19929;-93
2023/06/27 16:32:35;;;;;;;;;;;19.00;60.10;;;;;;5038477;28;19959;-94
2023/06/27 16:35:21;;;;;;;;;;;18.90;60.50;;;;;;5005691;28;19931;-94
2023/06/27 16:37:46;;;;;;;;;;;18.80;60.90;;;;;;5024975;28;19928;-92
2023/06/27 16:40:12;;;;;;;;;;;18.70;61.40;;;;;;5038247;28;19925;-95
2023/06/27 16:42:41;;;;;;;;;;;18.60;61.80;;;;;;5020693;28;19967;-96
2023/06/27 16:45:10;;;;;;;;;;;18.70;61.80;;;;;;5028416;28;19929;-95
2023/06/27 16:47:35;;;;;;;;;;;18.60;62.00;;;;;;5019266;28;19985;-96
2023/06/27 16:50:02;;;;;;;;;;;18.60;61.70;;;;;;5033240;28;20023;-94
2023/06/27 16:52:27;;;;;;;;;;;18.60;62.00;;;;;;5019728;28;20384;-94
2023/06/27 16:54:53;;;;;;;;;;;18.50;62.20;;;;;;5016499;28;19936;-93
2023/06/27 16:57:22;;;;;;;;;;;18.50;62.20;;;;;;5020655;28;19928;-92
2023/06/27 16:59:47;;;;;;;;;;;18.50;62.40;;;;;;5032025;28;19924;-93
2023/06/27 17:02:18;;;;;;;;;;;18.40;62.40;;;;;;5021904;28;19928;-96
2023/06/27 17:04:44;;;;;;;;;;;18.40;62.90;;;;;;5028818;28;19925;-95
2023/06/27 17:07:14;;;;;;;;;;;18.40;63.10;;;;;;5010200;28;20005;-93
2023/06/27 17:09:43;;;;;;;;;;;18.40;63.10;;;;;;5025874;28;19928;-96
2023/06/27 17:12:09;;;;;;;;;;;18.40;63.20;;;;;;5024187;28;19962;-95
2023/06/27 17:14:37;;;;;;;;;;;18.40;63.70;;;;;;5028901;28;19928;-92
2023/06/27 17:17:03;;;;;;;;;;;18.30;63.90;;;;;;5010301;28;19920;-92
2023/06/27 17:19:31;;;;;;;;;;;18.20;64.10;;;;;;5022644;28;20341;-92
2023/06/27 17:21:57;;;;;;;;;;;18.20;64.50;;;;;;5023646;28;19932;-95
2023/06/27 17:24:23;;;;;;;;;;;18.10;64.60;;;;;;5020301;28;19929;-95
2023/06/27 17:26:49;;;;;;;;;;;18.10;65.00;;;;;;5016779;28;19943;-93
2023/06/27 17:29:14;;;;;;;;;;;18.00;65.00;;;;;;5035940;28;19932;-93
2023/06/27 17:31:40;;;;;;;;;;;18.00;65.10;;;;;;5017673;28;20515;-92
2023/06/27 17:34:06;;;;;;;;;;;18.00;65.50;;;;;;5013211;28;19932;-92
2023/06/27 17:36:39;;;;;;;;;;;17.90;65.80;;;;;;5031268;28;19927;-93
2023/06/27 17:39:15;;;;;;;;;;;17.80;65.60;;;;;;5026345;28;19974;-94
2023/06/27 17:41:49;;;;;;;;;;;17.80;65.60;;;;;;5023086;28;19939;-95
2023/06/27 17:44:15;;;;;;;;;;;17.80;65.50;;;;;;4996509;28;19925;-94
2023/06/27 17:46:44;;;;;;;;;;;17.80;66.20;;;;;;5017469;28;19927;-92
2023/06/27 17:49:15;;;;;;;;;;;17.80;66.40;;;;;;5022713;28;20007;-94
2023/06/27 17:51:45;;;;;;;;;;;17.70;66.10;;;;;;5013469;28;19928;-92
2023/06/27 17:54:22;;;;;;;;;;;17.60;66.80;;;;;;5029551;28;19925;-94
2023/06/27 17:56:50;;;;;;;;;;;17.60;66.90;;;;;;5006899;28;19932;-91
2023/06/27 17:59:19;;;;;;;;;;;17.50;67.20;;;;;;5000734;28;20047;-95
2023/06/27 18:01:53;;;;;;;;;;;17.50;67.20;;;;;;5017769;28;20011;-93
2023/06/27 18:04:19;;;;;;;;;;;17.50;67.70;;;;;;4987457;28;20070;-93
2023/06/27 18:06:48;;;;;;;;;;;17.50;67.80;;;;;;5028890;28;19935;-93